Time;durP1;ratioP1;P1;durP2;ratioP2;P2;SDS_P1;SDS_P2;PMS_P1;PMS_P2;Temp;Humidity;BMP_temperature;BMP_pressure;BME280_temperature;BME280_humidity;BME280_pressure;Samples;Min_cycle;Max_cycle;Signal;HPM_P1;HPM_P2
2022/03/25 00:01:54;;;;;;;62.70;37.65;;;7.00;99.90;;;;;;5097301;28;20043;-74
2022/03/25 00:04:20;;;;;;;67.40;37.80;;;6.20;99.90;;;;;;5097241;28;20518;-74
2022/03/25 00:06:45;;;;;;;60.47;37.63;;;5.60;99.90;;;;;;5097038;28;20135;-74
2022/03/25 00:09:11;;;;;;;65.05;38.38;;;6.30;99.90;;;;;;5097116;28;20123;-74
2022/03/25 00:11:37;;;;;;;62.13;37.38;;;5.70;99.90;;;;;;5079350;28;20047;-74
2022/03/25 00:14:03;;;;;;;60.85;36.60;;;6.00;99.90;;;;;;5097094;28;20079;-74
2022/03/25 00:16:28;;;;;;;60.50;35.97;;;5.60;99.90;;;;;;5097122;28;20040;-74
2022/03/25 00:18:54;;;;;;;57.58;34.60;;;5.70;99.90;;;;;;5097051;28;20052;-74
2022/03/25 00:21:20;;;;;;;60.22;35.72;;;5.70;99.90;;;;;;5079109;28;20036;-74
2022/03/25 00:23:46;;;;;;;53.15;33.15;;;5.80;99.90;;;;;;5096873;28;20081;-74
2022/03/25 00:26:12;;;;;;;52.45;32.30;;;5.30;99.90;;;;;;5095718;28;20090;-74
2022/03/25 00:28:38;;;;;;;70.30;31.80;;;5.70;99.90;;;;;;5096506;28;20241;-74
2022/03/25 00:31:06;;;;;;;52.63;32.20;;;5.20;99.90;;;;;;5095503;28;20043;-74
2022/03/25 00:33:33;;;;;;;61.42;33.05;;;6.20;99.90;;;;;;5096779;28;20101;-74
2022/03/25 00:36:00;;;;;;;46.55;28.80;;;5.70;99.90;;;;;;5096191;28;20043;-74
2022/03/25 00:38:27;;;;;;;47.40;27.77;;;5.60;99.90;;;;;;5097016;28;20048;-74
2022/03/25 00:40:54;;;;;;;49.13;26.02;;;5.80;99.90;;;;;;5097234;28;20082;-74
2022/03/25 00:43:20;;;;;;;37.35;25.20;;;5.10;99.90;;;;;;5096553;28;20102;-73
2022/03/25 00:45:46;;;;;;;37.28;26.20;;;6.00;99.90;;;;;;5095540;28;20054;-74
2022/03/25 00:48:14;;;;;;;41.28;27.55;;;5.30;99.90;;;;;;5095502;28;20468;-74
2022/03/25 00:50:41;;;;;;;40.40;26.90;;;5.30;99.90;;;;;;5096716;28;20040;-74
2022/03/25 00:53:08;;;;;;;43.17;27.58;;;5.10;99.90;;;;;;5096460;28;20052;-73
2022/03/25 00:55:34;;;;;;;43.13;27.95;;;5.10;99.90;;;;;;5095103;28;20128;-74
2022/03/25 00:58:00;;;;;;;45.63;28.15;;;5.00;99.90;;;;;;5096235;28;20043;-74
2022/03/25 01:00:26;;;;;;;89.30;30.38;;;4.70;99.90;;;;;;5095584;28;20040;-74
2022/03/25 01:02:52;;;;;;;82.18;32.58;;;5.50;99.90;;;;;;5094971;28;20088;-74
2022/03/25 01:05:18;;;;;;;269.42;41.63;;;4.80;99.90;;;;;;5096031;28;20062;-74
2022/03/25 01:07:44;;;;;;;243.55;34.10;;;4.60;99.90;;;;;;5094365;28;20032;-74
2022/03/25 01:10:11;;;;;;;332.88;37.78;;;4.80;99.90;;;;;;5096010;28;20050;-74
2022/03/25 01:12:37;;;;;;;460.08;54.85;;;5.60;99.90;;;;;;5095075;28;20040;-74
2022/03/25 01:15:04;;;;;;;274.58;34.28;;;4.50;99.90;;;;;;5095990;28;20044;-74
2022/03/25 01:17:30;;;;;;;259.00;34.63;;;4.40;99.90;;;;;;5095883;28;20040;-74
2022/03/25 01:19:55;;;;;;;344.23;38.95;;;4.30;99.90;;;;;;5095860;28;20040;-74
2022/03/25 01:22:21;;;;;;;349.77;38.97;;;4.50;99.90;;;;;;5078138;28;20048;-73
2022/03/25 01:24:48;;;;;;;389.65;41.83;;;5.00;99.90;;;;;;5096133;28;20123;-73
2022/03/25 01:27:14;;;;;;;286.08;33.40;;;4.30;99.90;;;;;;5095872;28;20165;-74
2022/03/25 01:29:40;;;;;;;545.03;53.05;;;4.10;99.90;;;;;;5095618;28;20482;-74
2022/03/25 01:32:07;;;;;;;512.67;50.72;;;4.50;99.90;;;;;;5094443;28;20387;-73
2022/03/25 01:34:33;;;;;;;384.98;37.22;;;4.10;99.90;;;;;;5077470;28;20047;-74
2022/03/25 01:36:59;;;;;;;379.20;39.78;;;4.20;99.90;;;;;;5095061;28;20036;-73
2022/03/25 01:39:25;;;;;;;289.08;34.80;;;4.20;99.90;;;;;;5094489;28;20040;-74
2022/03/25 01:41:50;;;;;;;450.77;46.58;;;4.30;99.90;;;;;;5094201;28;20063;-74
2022/03/25 01:44:25;;;;;;;300.00;34.38;;;4.10;99.90;;;;;;5094356;28;20032;-73
2022/03/25 01:46:55;;;;;;;248.18;35.13;;;4.00;99.90;;;;;;5094644;28;20125;-73
2022/03/25 01:49:22;;;;;;;272.02;34.90;;;3.60;99.90;;;;;;5095360;28;20439;-73
2022/03/25 01:51:53;;;;;;;265.38;33.85;;;3.80;99.90;;;;;;5094638;28;20044;-73
2022/03/25 01:54:22;;;;;;;332.15;37.88;;;3.90;99.90;;;;;;5095521;28;20059;-73
2022/03/25 01:56:57;;;;;;;355.85;37.22;;;3.90;99.90;;;;;;5095100;28;20050;-74
2022/03/25 01:59:24;;;;;;;315.92;36.97;;;3.60;99.90;;;;;;5095087;28;20105;-73
2022/03/25 02:01:50;;;;;;;241.77;32.20;;;4.00;99.90;;;;;;5095013;28;20460;-74
2022/03/25 02:04:17;;;;;;;296.40;32.58;;;3.80;99.90;;;;;;5094955;28;20123;-73
2022/03/25 02:06:44;;;;;;;220.70;29.25;;;4.10;99.90;;;;;;5094515;28;20036;-74
2022/03/25 02:09:10;;;;;;;395.60;39.80;;;3.70;99.90;;;;;;5094883;28;20402;-73
2022/03/25 02:11:37;;;;;;;382.40;40.08;;;4.20;99.90;;;;;;5095587;28;20043;-74
2022/03/25 02:14:03;;;;;;;313.08;35.30;;;4.10;99.90;;;;;;5094697;28;20123;-74
2022/03/25 02:16:42;;;;;;;269.13;37.92;;;4.50;99.90;;;;;;5094739;28;20135;-73
2022/03/25 02:19:10;;;;;;;259.55;33.83;;;3.50;99.90;;;;;;5094958;28;20039;-73
2022/03/25 02:21:41;;;;;;;183.82;29.25;;;4.30;99.90;;;;;;5093329;28;20052;-74
2022/03/25 02:24:08;;;;;;;278.52;33.53;;;4.20;99.90;;;;;;5094589;28;20044;-73
2022/03/25 02:26:36;;;;;;;268.60;31.98;;;4.00;99.90;;;;;;5094560;28;20430;-73
2022/03/25 02:29:04;;;;;;;343.50;35.42;;;3.60;99.90;;;;;;5094445;28;20395;-73
2022/03/25 02:31:30;;;;;;;331.23;35.92;;;3.90;99.90;;;;;;5093121;28;20097;-73
2022/03/25 02:34:01;;;;;;;307.75;40.55;;;3.50;99.90;;;;;;5094461;28;20036;-74
2022/03/25 02:36:26;;;;;;;235.98;29.40;;;3.80;99.90;;;;;;5092897;28;20040;-73
2022/03/25 02:38:52;;;;;;;422.50;45.38;;;4.00;99.90;;;;;;5094386;28;20519;-74
2022/03/25 02:41:18;;;;;;;449.65;48.97;;;4.20;99.90;;;;;;5094349;28;20487;-73
2022/03/25 02:43:44;;;;;;;318.13;36.67;;;4.80;99.90;;;;;;5094233;28;20039;-73
2022/03/25 02:46:10;;;;;;;303.17;37.97;;;3.70;99.90;;;;;;5093599;28;20040;-73
2022/03/25 02:48:36;;;;;;;368.80;43.28;;;3.80;99.90;;;;;;5076339;28;20376;-73
2022/03/25 02:51:02;;;;;;;291.38;34.45;;;3.80;99.90;;;;;;5094013;28;20487;-73
2022/03/25 02:53:28;;;;;;;237.60;29.85;;;4.00;99.90;;;;;;5094087;28;20048;-73
2022/03/25 02:55:55;;;;;;;177.23;29.35;;;3.70;99.90;;;;;;5094624;28;20056;-73
2022/03/25 02:58:21;;;;;;;321.67;38.63;;;3.50;99.90;;;;;;5093024;28;20047;-73
2022/03/25 03:00:48;;;;;;;235.68;29.65;;;3.50;99.90;;;;;;5094001;28;20093;-73
2022/03/25 03:03:14;;;;;;;198.57;30.25;;;4.00;99.90;;;;;;5093436;28;20039;-73
2022/03/25 03:05:39;;;;;;;151.00;25.42;;;3.60;99.90;;;;;;5092009;28;20083;-73
2022/03/25 03:08:06;;;;;;;121.68;27.52;;;4.30;99.90;;;;;;5093908;28;20451;-73
2022/03/25 03:10:32;;;;;;;154.93;32.10;;;3.30;99.90;;;;;;5093791;28;20054;-73
2022/03/25 03:13:02;;;;;;;129.52;26.20;;;3.80;99.90;;;;;;5094558;28;20176;-73
2022/03/25 03:15:29;;;;;;;60.58;24.58;;;3.40;99.90;;;;;;5093818;28;20039;-72
2022/03/25 03:17:54;;;;;;;65.80;23.83;;;4.60;99.90;;;;;;5092813;28;20043;-72
2022/03/25 03:20:21;;;;;;;75.85;24.50;;;3.90;99.90;;;;;;5093838;28;20036;-72
2022/03/25 03:22:48;;;;;;;55.83;24.75;;;3.50;99.90;;;;;;5075949;28;20105;-73
2022/03/25 03:25:14;;;;;;;59.10;25.38;;;3.40;99.90;;;;;;5093730;28;20482;-73
2022/03/25 03:27:40;;;;;;;62.75;23.27;;;3.80;99.90;;;;;;5092631;28;20040;-72
2022/03/25 03:30:08;;;;;;;63.85;25.13;;;3.60;99.90;;;;;;5094076;28;20365;-73
2022/03/25 03:32:35;;;;;;;54.63;23.77;;;3.40;99.90;;;;;;5092663;28;20040;-73
2022/03/25 03:35:02;;;;;;;59.33;25.02;;;3.50;99.90;;;;;;5092656;28;20126;-73
2022/03/25 03:37:28;;;;;;;35.92;23.13;;;3.40;99.90;;;;;;5091988;28;20063;-73
2022/03/25 03:39:54;;;;;;;32.58;22.02;;;3.60;99.90;;;;;;5093574;28;20460;-73
2022/03/25 03:42:20;;;;;;;31.48;22.25;;;3.40;99.90;;;;;;5093627;28;20044;-72
2022/03/25 03:44:46;;;;;;;32.97;21.83;;;4.20;99.90;;;;;;5093710;28;20511;-73
2022/03/25 03:47:12;;;;;;;29.33;19.52;;;3.30;99.90;;;;;;5093642;28;20380;-73
2022/03/25 03:49:39;;;;;;;28.83;20.27;;;3.90;99.90;;;;;;5092483;28;20075;-73
2022/03/25 03:52:05;;;;;;;31.42;21.40;;;3.30;99.90;;;;;;5093400;28;20054;-73
2022/03/25 03:54:32;;;;;;;31.92;21.00;;;3.20;99.90;;;;;;5094037;28;20052;-73
2022/03/25 03:56:58;;;;;;;30.38;21.10;;;3.20;99.90;;;;;;5093528;28;20135;-73
2022/03/25 03:59:24;;;;;;;28.02;20.23;;;3.20;99.90;;;;;;5092241;28;20458;-73
2022/03/25 04:01:50;;;;;;;26.23;19.35;;;3.50;99.90;;;;;;5093500;28;20044;-73
2022/03/25 04:04:16;;;;;;;26.25;19.13;;;3.10;99.90;;;;;;5075602;28;20054;-73
2022/03/25 04:06:41;;;;;;;27.05;18.65;;;3.30;99.90;;;;;;5092787;28;20083;-73
2022/03/25 04:09:07;;;;;;;23.33;17.83;;;2.90;99.90;;;;;;5093743;28;20086;-73
2022/03/25 04:11:33;;;;;;;21.63;16.08;;;3.30;99.90;;;;;;5075277;28;20044;-73
2022/03/25 04:13:58;;;;;;;22.33;16.52;;;3.40;99.90;;;;;;5093001;28;20048;-73
2022/03/25 04:16:24;;;;;;;19.52;15.30;;;3.40;99.90;;;;;;5096260;28;20084;-73
2022/03/25 04:18:50;;;;;;;20.38;15.35;;;3.10;99.90;;;;;;5097343;28;20392;-72
2022/03/25 04:21:16;;;;;;;21.30;16.60;;;3.20;99.90;;;;;;5097108;28;20040;-74
2022/03/25 04:23:42;;;;;;;21.33;15.77;;;3.10;99.90;;;;;;5095620;28;20058;-73
2022/03/25 04:26:08;;;;;;;22.20;16.67;;;3.10;99.90;;;;;;5096675;28;20051;-73
2022/03/25 04:28:34;;;;;;;23.23;17.13;;;3.60;99.90;;;;;;5097397;28;20055;-73
2022/03/25 04:31:00;;;;;;;24.10;16.83;;;3.30;99.90;;;;;;5095660;28;20048;-73
2022/03/25 04:33:25;;;;;;;21.67;16.85;;;3.90;99.90;;;;;;5096929;28;20098;-73
2022/03/25 04:35:51;;;;;;;21.52;15.90;;;3.10;99.90;;;;;;5078194;28;20052;-73
2022/03/25 04:38:17;;;;;;;23.05;16.52;;;3.20;99.90;;;;;;5096702;28;20040;-74
2022/03/25 04:40:43;;;;;;;20.00;15.80;;;4.00;99.90;;;;;;5095720;28;20401;-74
2022/03/25 04:43:09;;;;;;;19.80;14.95;;;3.50;99.90;;;;;;5095735;28;20097;-73
2022/03/25 04:45:35;;;;;;;20.65;15.40;;;3.20;99.90;;;;;;5096567;28;20083;-74
2022/03/25 04:48:02;;;;;;;22.42;16.65;;;3.10;99.90;;;;;;5096515;28;20197;-74
2022/03/25 04:50:28;;;;;;;20.35;15.77;;;3.10;99.90;;;;;;5096120;28;20491;-73
2022/03/25 04:52:54;;;;;;;19.10;15.80;;;3.30;99.90;;;;;;5094958;28;20109;-73
2022/03/25 04:55:20;;;;;;;21.58;16.15;;;3.00;99.90;;;;;;5094742;28;20056;-73
2022/03/25 04:57:48;;;;;;;20.88;15.82;;;2.90;99.90;;;;;;5094932;28;20480;-74
2022/03/25 05:00:15;;;;;;;20.77;16.02;;;2.80;99.90;;;;;;5096370;28;20047;-74
2022/03/25 05:02:41;;;;;;;19.75;16.02;;;2.70;99.90;;;;;;5095902;28;20480;-73
2022/03/25 05:05:07;;;;;;;20.85;15.98;;;3.00;99.90;;;;;;5095262;28;20054;-73
2022/03/25 05:07:33;;;;;;;22.30;16.77;;;2.60;99.90;;;;;;5095523;28;20496;-73
2022/03/25 05:10:00;;;;;;;22.83;16.85;;;3.20;99.90;;;;;;5096068;28;20047;-73
2022/03/25 05:12:30;;;;;;;23.77;17.35;;;2.50;99.90;;;;;;5096091;28;20087;-74
2022/03/25 05:14:56;;;;;;;21.17;16.52;;;2.80;99.90;;;;;;5094769;28;20132;-73
2022/03/25 05:17:21;;;;;;;21.60;16.25;;;4.00;99.90;;;;;;5096030;28;20047;-73
2022/03/25 05:19:47;;;;;;;23.33;17.08;;;2.70;99.90;;;;;;5095988;28;20109;-74
2022/03/25 05:22:14;;;;;;;23.55;17.05;;;2.70;99.90;;;;;;5096688;28;20044;-73
2022/03/25 05:24:40;;;;;;;23.08;15.90;;;3.00;99.90;;;;;;5095947;28;20092;-73
2022/03/25 05:27:06;;;;;;;21.38;16.23;;;3.30;99.90;;;;;;5094889;28;20234;-73
2022/03/25 05:29:32;;;;;;;22.95;16.73;;;2.60;99.90;;;;;;5094418;28;20048;-73
2022/03/25 05:31:58;;;;;;;22.83;16.58;;;3.40;99.90;;;;;;5095708;28;20496;-73
2022/03/25 05:34:23;;;;;;;22.98;16.33;;;2.70;99.90;;;;;;5095655;28;20040;-73
2022/03/25 05:36:49;;;;;;;22.90;16.92;;;2.60;99.90;;;;;;5095021;28;20100;-73
2022/03/25 05:39:15;;;;;;;21.98;16.77;;;3.50;99.90;;;;;;5094077;28;20048;-73
2022/03/25 05:41:44;;;;;;;23.25;16.80;;;3.00;99.90;;;;;;5094259;28;20059;-73
2022/03/25 05:44:10;;;;;;;22.10;17.27;;;3.10;99.90;;;;;;5095567;28;20051;-73
2022/03/25 05:46:36;;;;;;;23.05;16.58;;;2.60;99.90;;;;;;5095546;28;20040;-73
2022/03/25 05:49:02;;;;;;;26.50;17.73;;;3.60;99.90;;;;;;5095344;28;20388;-74
2022/03/25 05:51:27;;;;;;;22.75;16.45;;;2.50;99.90;;;;;;5077256;28;20040;-73
2022/03/25 05:53:53;;;;;;;21.63;15.93;;;2.70;99.90;;;;;;5095266;28;20381;-73
2022/03/25 05:56:20;;;;;;;23.33;17.02;;;2.70;99.90;;;;;;5095514;28;20514;-73
2022/03/25 05:58:46;;;;;;;25.10;17.65;;;2.70;99.90;;;;;;5095200;28;20044;-73
2022/03/25 06:01:13;;;;;;;23.00;17.65;;;3.30;99.90;;;;;;5095187;28;20047;-73
2022/03/25 06:03:39;;;;;;;25.50;18.27;;;3.30;99.90;;;;;;5095043;28;20051;-73
2022/03/25 06:06:06;;;;;;;27.85;18.48;;;3.10;99.90;;;;;;5094476;28;20042;-73
2022/03/25 06:08:32;;;;;;;26.80;18.33;;;3.50;99.90;;;;;;5095159;28;20052;-73
2022/03/25 06:10:59;;;;;;;30.75;18.80;;;2.80;99.90;;;;;;5094351;28;20044;-73
2022/03/25 06:13:29;;;;;;;28.75;18.92;;;3.00;99.90;;;;;;5094940;28;20052;-73
2022/03/25 06:15:55;;;;;;;30.88;20.27;;;3.10;99.90;;;;;;5094808;28;20050;-73
2022/03/25 06:18:22;;;;;;;32.58;20.77;;;4.10;99.90;;;;;;5076696;28;20101;-73
2022/03/25 06:20:48;;;;;;;34.17;21.83;;;3.50;99.90;;;;;;5093826;28;20052;-73
2022/03/25 06:23:14;;;;;;;35.05;21.17;;;3.50;99.90;;;;;;5094462;28;20040;-73
2022/03/25 06:25:43;;;;;;;34.50;22.65;;;3.30;99.90;;;;;;5093491;28;20047;-73
2022/03/25 06:28:08;;;;;;;38.17;22.67;;;4.40;99.90;;;;;;5094609;28;20054;-73
2022/03/25 06:30:39;;;;;;;37.85;22.33;;;4.20;99.90;;;;;;5094525;28;20044;-73
2022/03/25 06:33:09;;;;;;;40.25;23.80;;;4.00;99.90;;;;;;5093474;28;20484;-73
2022/03/25 06:35:36;;;;;;;40.55;24.13;;;3.70;99.90;;;;;;5093881;28;20100;-73
2022/03/25 06:38:03;;;;;;;43.40;24.48;;;3.90;99.90;;;;;;5075505;28;20455;-74
2022/03/25 06:40:29;;;;;;;37.45;22.63;;;3.80;99.90;;;;;;5094972;28;20040;-74
2022/03/25 06:42:57;;;;;;;35.50;22.98;;;4.70;99.90;;;;;;5093249;28;20044;-74
2022/03/25 06:45:24;;;;;;;36.30;22.20;;;3.80;99.90;;;;;;5094652;28;20398;-74
2022/03/25 06:47:50;;;;;;;38.72;23.20;;;5.20;99.90;;;;;;5094252;28;20048;-74
2022/03/25 06:50:17;;;;;;;45.03;25.67;;;5.00;99.90;;;;;;5094113;28;20041;-74
2022/03/25 06:52:45;;;;;;;41.33;23.52;;;4.10;99.90;;;;;;5094308;28;20055;-73
2022/03/25 06:55:12;;;;;;;42.40;24.42;;;4.20;99.90;;;;;;5075474;28;20088;-73
2022/03/25 06:57:38;;;;;;;44.28;25.02;;;4.40;99.90;;;;;;5093157;28;20071;-73
2022/03/25 07:00:05;;;;;;;42.22;25.65;;;4.30;99.90;;;;;;5076263;28;20097;-73
2022/03/25 07:02:31;;;;;;;42.33;24.08;;;4.40;99.90;;;;;;5092750;28;20051;-74
2022/03/25 07:04:57;;;;;;;41.83;24.58;;;4.60;99.90;;;;;;5094118;28;20044;-74
2022/03/25 07:07:26;;;;;;;45.72;25.88;;;4.60;99.90;;;;;;5093520;28;20452;-74
2022/03/25 07:09:55;;;;;;;44.80;24.90;;;4.60;99.90;;;;;;5093909;28;20044;-74
2022/03/25 07:12:21;;;;;;;45.70;26.30;;;4.80;99.90;;;;;;5093958;28;20048;-74
2022/03/25 07:14:47;;;;;;;42.30;23.35;;;4.90;99.90;;;;;;5076366;28;20094;-74
2022/03/25 07:17:13;;;;;;;42.00;24.30;;;5.40;99.90;;;;;;5093045;28;20044;-74
2022/03/25 07:19:38;;;;;;;41.03;23.98;;;5.50;99.90;;;;;;5093951;28;20498;-74
2022/03/25 07:22:04;;;;;;;41.90;23.90;;;5.10;99.90;;;;;;5093966;28;20040;-74
2022/03/25 07:24:30;;;;;;;44.20;24.60;;;5.40;99.90;;;;;;5075854;28;20177;-74
2022/03/25 07:26:56;;;;;;;42.15;23.48;;;5.50;99.90;;;;;;5059602;28;20056;-75
2022/03/25 07:29:22;;;;;;;43.15;25.17;;;5.50;99.90;;;;;;5093730;28;20052;-74
2022/03/25 07:31:47;;;;;;;43.63;25.52;;;5.40;99.90;;;;;;5092634;28;20044;-75
2022/03/25 07:34:13;;;;;;;46.25;27.58;;;5.60;99.90;;;;;;5093775;28;20079;-75
2022/03/25 07:36:39;;;;;;;42.28;24.60;;;5.60;99.90;;;;;;5092165;28;20048;-74
2022/03/25 07:39:05;;;;;;;43.00;23.83;;;5.90;99.90;;;;;;5092286;28;20097;-75
2022/03/25 07:41:31;;;;;;;41.33;22.70;;;5.60;99.90;;;;;;5075808;28;20048;-75
2022/03/25 07:43:56;;;;;;;43.35;25.75;;;5.80;99.90;;;;;;5093481;28;20134;-74
2022/03/25 07:46:23;;;;;;;36.88;22.20;;;6.20;99.90;;;;;;5092363;28;20470;-75
2022/03/25 07:48:50;;;;;;;37.35;23.17;;;6.20;99.90;;;;;;5093381;28;20083;-75
2022/03/25 07:51:16;;;;;;;39.17;22.40;;;6.60;99.90;;;;;;5096349;28;20119;-75
2022/03/25 07:53:41;;;;;;;41.13;22.50;;;6.60;99.90;;;;;;5095864;28;20552;-74
2022/03/25 07:56:07;;;;;;;37.08;22.23;;;6.60;99.90;;;;;;5096217;28;20052;-75
2022/03/25 07:58:33;;;;;;;39.22;21.83;;;6.80;99.90;;;;;;5096360;28;20476;-75
2022/03/25 08:00:58;;;;;;;38.38;22.63;;;6.50;99.90;;;;;;5079519;28;20067;-75
2022/03/25 08:03:24;;;;;;;33.63;20.35;;;6.50;99.90;;;;;;5097300;28;20044;-74
2022/03/25 08:05:51;;;;;;;35.05;19.17;;;7.00;99.90;;;;;;5097347;28;20051;-74
2022/03/25 08:08:19;;;;;;;33.92;21.05;;;7.50;99.90;;;;;;5095952;28;20048;-75
2022/03/25 08:10:47;;;;;;;34.00;20.02;;;7.00;99.90;;;;;;5097540;28;20079;-72
2022/03/25 08:13:12;;;;;;;32.33;20.23;;;7.30;99.90;;;;;;5096180;28;20048;-72
2022/03/25 08:15:38;;;;;;;32.00;19.05;;;7.40;99.90;;;;;;5097125;28;20063;-73
2022/03/25 08:18:07;;;;;;;29.85;18.73;;;7.60;99.90;;;;;;5096876;28;20044;-73
2022/03/25 08:20:39;;;;;;;29.17;18.23;;;7.30;99.90;;;;;;5097321;28;20127;-72
2022/03/25 08:23:07;;;;;;;28.00;17.55;;;7.50;99.90;;;;;;5096552;28;20052;-73
2022/03/25 08:28:18;;;;;;;29.17;17.67;;;7.50;99.90;;;;;;5097131;28;20400;-73
2022/03/25 08:30:46;;;;;;;27.50;15.95;;;7.70;99.90;;;;;;5096840;28;20440;-73
2022/03/25 08:33:12;;;;;;;24.40;15.77;;;8.10;99.90;;;;;;5095858;28;20048;-75
2022/03/25 08:35:39;;;;;;;26.75;16.85;;;8.60;99.90;;;;;;5096574;28;20467;-75
2022/03/25 08:38:06;;;;;;;28.85;16.70;;;8.20;99.90;;;;;;5096301;28;20048;-76
2022/03/25 08:40:34;;;;;;;32.13;17.73;;;8.00;99.90;;;;;;5096731;28;20127;-75
2022/03/25 08:43:02;;;;;;;26.60;16.67;;;8.00;99.90;;;;;;5095537;28;20048;-75
2022/03/25 08:45:28;;;;;;;28.65;17.30;;;8.20;99.90;;;;;;5095646;28;20048;-76
2022/03/25 08:47:54;;;;;;;27.05;16.30;;;8.30;99.90;;;;;;5096598;28;20051;-75
2022/03/25 08:50:22;;;;;;;27.35;16.17;;;8.60;99.90;;;;;;5094522;28;20058;-77
2022/03/25 08:52:49;;;;;;;28.30;16.70;;;8.40;99.90;;;;;;5078271;28;20077;-76
2022/03/25 08:55:17;;;;;;;22.17;15.88;;;8.70;99.90;;;;;;5094650;28;20048;-73
2022/03/25 08:57:43;;;;;;;24.70;14.60;;;9.00;99.90;;;;;;5092342;28;20126;-78
2022/03/25 09:00:12;;;;;;;24.60;14.95;;;8.90;99.90;;;;;;5095925;28;20123;-77
2022/03/25 09:02:39;;;;;;;28.90;15.85;;;8.80;99.90;;;;;;5094477;28;20040;-76
2022/03/25 09:05:06;;;;;;;24.10;14.75;;;8.70;99.90;;;;;;5095995;28;20048;-77
2022/03/25 09:07:32;;;;;;;28.95;14.05;;;8.70;99.90;;;;;;5095497;28;20093;-76
2022/03/25 09:09:57;;;;;;;21.90;12.60;;;8.80;99.90;;;;;;5120304;27;20430;-76
2022/03/25 09:12:23;;;;;;;20.70;12.10;;;9.20;99.90;;;;;;5090927;28;20086;-73
2022/03/25 09:14:49;;;;;;;23.30;14.05;;;9.10;99.90;;;;;;5087837;28;20044;-73
2022/03/25 09:17:15;;;;;;;22.85;13.35;;;9.20;99.90;;;;;;5086785;28;20048;-73
2022/03/25 09:19:42;;;;;;;22.40;14.20;;;9.20;99.90;;;;;;5085432;28;20055;-74
2022/03/25 09:22:08;;;;;;;23.02;13.80;;;9.20;99.90;;;;;;5070081;28;20063;-73
2022/03/25 09:24:34;;;;;;;21.65;13.02;;;9.10;99.90;;;;;;5087594;28;20048;-74
2022/03/25 09:26:59;;;;;;;23.23;13.45;;;9.20;99.90;;;;;;5068608;28;20615;-73
2022/03/25 09:29:25;;;;;;;21.65;13.63;;;9.20;99.90;;;;;;5070307;28;20106;-73
2022/03/25 09:31:51;;;;;;;19.60;11.88;;;8.40;99.90;;;;;;5087573;28;20496;-73
2022/03/25 09:37:04;;;;;;;19.05;11.52;;;9.40;99.90;;;;;;5089430;28;20415;-72
2022/03/25 09:39:30;;;;;;;22.42;12.55;;;9.50;99.90;;;;;;5086355;28;20051;-73
2022/03/25 09:41:57;;;;;;;19.45;11.95;;;9.60;99.90;;;;;;5088648;28;20052;-73
2022/03/25 09:44:23;;;;;;;20.40;12.02;;;9.70;99.90;;;;;;5082753;28;20073;-73
2022/03/25 09:46:50;;;;;;;20.80;12.50;;;9.70;99.90;;;;;;5086970;28;20238;-73
2022/03/25 09:49:17;;;;;;;20.05;12.48;;;9.80;99.90;;;;;;5087896;28;20071;-73
2022/03/25 09:51:44;;;;;;;21.02;13.05;;;10.10;99.90;;;;;;5084169;28;20472;-74
2022/03/25 09:54:13;;;;;;;22.95;13.52;;;9.90;99.90;;;;;;5088563;28;20052;-73
2022/03/25 09:56:40;;;;;;;21.70;14.25;;;10.20;99.90;;;;;;5088420;28;20048;-73
2022/03/25 09:59:07;;;;;;;24.25;14.63;;;10.10;99.90;;;;;;5080258;28;20063;-73
2022/03/25 10:01:33;;;;;;;25.80;14.50;;;10.20;99.90;;;;;;5085813;28;20072;-74
2022/03/25 10:03:59;;;;;;;25.00;14.10;;;10.30;99.90;;;;;;5087659;28;20051;-74
2022/03/25 10:06:25;;;;;;;26.52;15.82;;;10.70;99.90;;;;;;5087869;28;20048;-73
2022/03/25 10:08:59;;;;;;;25.40;14.38;;;10.50;99.90;;;;;;5069536;28;20044;-73
2022/03/25 10:11:32;;;;;;;23.05;14.25;;;10.50;99.90;;;;;;5084869;28;20442;-74
2022/03/25 10:14:23;;;;;;;23.35;13.95;;;10.50;99.90;;;;;;5086820;28;20365;-74
2022/03/25 10:16:53;;;;;;;23.42;13.57;;;10.60;99.90;;;;;;5085511;28;20383;-73
2022/03/25 10:19:21;;;;;;;23.35;14.15;;;10.60;99.90;;;;;;5087464;28;20075;-73
2022/03/25 10:21:56;;;;;;;22.38;12.68;;;10.70;99.90;;;;;;5087617;28;20498;-74
2022/03/25 10:24:52;;;;;;;22.90;13.00;;;10.80;99.90;;;;;;5086094;28;20083;-74
2022/03/25 10:27:22;;;;;;;21.00;12.40;;;10.90;99.90;;;;;;5083392;28;20048;-73
2022/03/25 10:29:50;;;;;;;22.40;14.13;;;11.10;99.90;;;;;;5088614;28;20164;-73
2022/03/25 10:32:19;;;;;;;23.38;13.20;;;11.00;99.70;;;;;;5086643;28;20475;-73
2022/03/25 10:35:09;;;;;;;22.30;12.23;;;11.00;99.60;;;;;;5083194;28;20079;-74
2022/03/25 10:37:53;;;;;;;18.73;9.90;;;11.10;98.80;;;;;;5088222;28;20120;-73
2022/03/25 10:40:19;;;;;;;14.90;8.82;;;11.20;97.50;;;;;;5085591;28;20055;-74
2022/03/25 10:43:05;;;;;;;16.25;8.10;;;11.30;97.10;;;;;;5086075;28;20047;-74
2022/03/25 10:45:30;;;;;;;19.63;9.38;;;11.30;96.50;;;;;;5077998;28;20119;-74
2022/03/25 10:48:17;;;;;;;21.02;11.25;;;11.30;95.70;;;;;;5084439;28;20122;-74
2022/03/25 10:51:10;;;;;;;18.20;11.68;;;11.40;95.70;;;;;;5086912;28;20040;-73
2022/03/25 10:53:38;;;;;;;19.92;12.02;;;11.50;95.50;;;;;;5089149;28;20113;-73
2022/03/25 10:56:10;;;;;;;19.92;11.70;;;11.60;94.90;;;;;;5088896;28;20056;-72
2022/03/25 10:58:36;;;;;;;21.35;11.05;;;11.70;93.60;;;;;;5093070;28;20114;-73
2022/03/25 11:01:05;;;;;;;18.45;11.00;;;11.80;93.70;;;;;;5093172;28;20044;-73
2022/03/25 11:03:31;;;;;;;20.80;11.57;;;11.80;93.00;;;;;;5093161;28;20202;-73
2022/03/25 11:05:58;;;;;;;21.75;11.80;;;11.90;92.10;;;;;;5092906;28;20086;-72
2022/03/25 11:08:24;;;;;;;20.92;12.93;;;12.00;92.20;;;;;;5089436;28;20047;-73
2022/03/25 11:10:51;;;;;;;22.00;13.38;;;12.00;92.40;;;;;;5092332;28;20097;-73
2022/03/25 11:13:17;;;;;;;23.83;11.88;;;12.00;92.80;;;;;;5092805;28;20064;-73
2022/03/25 11:15:46;;;;;;;16.90;10.23;;;12.10;91.60;;;;;;5090366;28;20044;-72
2022/03/25 11:18:13;;;;;;;20.15;10.60;;;12.20;90.40;;;;;;5091476;28;20055;-73
2022/03/25 11:20:40;;;;;;;18.48;10.93;;;12.30;89.40;;;;;;5092470;28;20040;-74
2022/03/25 11:23:26;;;;;;;19.27;11.52;;;12.40;87.20;;;;;;5093138;28;20052;-73
2022/03/25 11:25:56;;;;;;;18.77;10.02;;;12.50;86.90;;;;;;5071752;28;20071;-73
2022/03/25 11:28:31;;;;;;;19.08;10.43;;;12.50;84.80;;;;;;5071848;28;20082;-73
2022/03/25 11:30:59;;;;;;;20.92;12.02;;;12.50;85.10;;;;;;5071735;28;20123;-73
2022/03/25 11:33:25;;;;;;;20.13;11.85;;;12.50;84.40;;;;;;5106109;28;20048;-72
2022/03/25 11:36:15;;;;;;;23.13;15.10;;;12.60;85.20;;;;;;5073517;28;20389;-72
2022/03/25 11:38:42;;;;;;;23.95;14.52;;;12.70;86.80;;;;;;5073532;28;20076;-72
2022/03/25 11:41:28;;;;;;;25.30;14.57;;;12.80;86.50;;;;;;5072080;28;20481;-72
2022/03/25 11:44:15;;;;;;;23.40;15.23;;;12.90;87.50;;;;;;5073514;28;20147;-74
2022/03/25 11:46:59;;;;;;;24.70;14.48;;;13.00;86.60;;;;;;5073407;28;20110;-73
2022/03/25 11:49:38;;;;;;;22.52;13.18;;;13.00;85.60;;;;;;5055876;28;20103;-72
2022/03/25 11:52:16;;;;;;;23.20;13.63;;;13.10;85.10;;;;;;5073413;28;20091;-72
2022/03/25 11:54:44;;;;;;;24.17;14.63;;;13.00;84.40;;;;;;5073007;28;20060;-71
2022/03/25 11:57:24;;;;;;;25.70;16.25;;;13.10;84.60;;;;;;5073377;28;20482;-72
2022/03/25 11:59:52;;;;;;;25.15;15.02;;;13.10;85.50;;;;;;5073383;28;20045;-72
2022/03/25 12:02:29;;;;;;;24.42;14.90;;;13.20;85.20;;;;;;5073317;28;20055;-71
2022/03/25 12:04:58;;;;;;;25.45;16.92;;;13.30;84.80;;;;;;5055566;28;20135;-72
2022/03/25 12:07:24;;;;;;;25.05;16.58;;;13.30;85.30;;;;;;5072698;28;20055;-71
2022/03/25 12:09:50;;;;;;;24.88;15.43;;;13.40;85.70;;;;;;5105946;28;20047;-72
2022/03/25 12:12:15;;;;;;;28.40;16.38;;;13.40;84.80;;;;;;5073310;28;20127;-72
2022/03/25 12:15:11;;;;;;;24.42;15.20;;;13.50;84.70;;;;;;5073175;28;20051;-72
2022/03/25 12:17:38;;;;;;;26.27;16.67;;;13.50;85.10;;;;;;5073114;28;20047;-71
2022/03/25 12:20:05;;;;;;;27.02;16.60;;;13.50;85.30;;;;;;5073085;28;20047;-72
2022/03/25 12:22:33;;;;;;;30.35;18.10;;;13.50;85.50;;;;;;5105606;28;20047;-72
2022/03/25 12:25:15;;;;;;;25.92;16.52;;;13.60;85.20;;;;;;5055302;28;20053;-72
2022/03/25 12:27:42;;;;;;;27.42;16.95;;;13.60;85.60;;;;;;5072940;28;20049;-72
2022/03/25 12:30:09;;;;;;;27.08;16.92;;;13.60;85.10;;;;;;5073005;28;20040;-73
2022/03/25 12:32:36;;;;;;;26.95;17.48;;;13.60;84.30;;;;;;5072944;28;20523;-73
2022/03/25 12:35:14;;;;;;;25.60;17.27;;;13.70;84.90;;;;;;5074043;28;20412;-73
2022/03/25 12:37:48;;;;;;;26.38;17.52;;;13.70;85.30;;;;;;5076087;28;20055;-73
2022/03/25 12:40:26;;;;;;;22.42;15.70;;;13.70;83.90;;;;;;5077315;28;20116;-72
2022/03/25 12:43:04;;;;;;;25.45;15.07;;;13.70;84.70;;;;;;5075853;28;20056;-72